createdAt,value
2023-05-04T00:00:25.840Z,99486.81
2023-05-04T00:02:52.928Z,99477.22
2023-05-04T00:05:20.254Z,99479.81
2023-05-04T00:07:47.705Z,99478.94
2023-05-04T00:10:14.707Z,99471.97
2023-05-04T00:12:43.039Z,99474.59
2023-05-04T00:15:10.574Z,99471.13
2023-05-04T00:17:37.579Z,99467.63
2023-05-04T00:20:05.521Z,99466.75
2023-05-04T00:22:32.576Z,99462.41
2023-05-04T00:25:00.356Z,99465.88
2023-05-04T00:27:27.432Z,99461.53
2023-05-04T00:29:54.787Z,99456.28
2023-05-04T00:32:22.330Z,99454.56
2023-05-04T00:34:49.627Z,99452.81
2023-05-04T00:37:16.866Z,99468.50
2023-05-04T00:39:44.418Z,99460.69
2023-05-04T00:42:11.854Z,99469.38
2023-05-04T00:44:41.619Z,99459.81
2023-05-04T00:47:09.743Z,99461.53
2023-05-04T00:49:37.092Z,99455.44
2023-05-04T00:52:05.522Z,99461.53
2023-05-04T00:54:33.524Z,99462.38
2023-05-04T00:57:01.070Z,99458.91
2023-05-04T00:59:28.502Z,99463.25
2023-05-04T01:01:55.379Z,99469.34
2023-05-04T01:04:22.772Z,99465.88
2023-05-04T01:07:09.183Z,99461.53
2023-05-04T01:09:36.531Z,99468.44
2023-05-04T01:12:27.903Z,99451.06
2023-05-04T01:14:57.506Z,99464.09
2023-05-04T01:17:24.845Z,99457.13
2023-05-04T01:19:54.386Z,99454.53
2023-05-04T01:22:22.298Z,99460.59
2023-05-04T01:24:50.640Z,99456.25
2023-05-04T01:27:37.103Z,99452.75
2023-05-04T01:30:11.768Z,99458.84
2023-05-04T01:32:42.687Z,99450.19
2023-05-04T01:35:11.884Z,99445.81
2023-05-04T01:37:38.955Z,99449.28
2023-05-04T01:40:06.755Z,99453.66
2023-05-04T01:42:34.536Z,99452.78
2023-05-04T01:45:04.389Z,99457.13
2023-05-04T01:47:32.372Z,99441.44
2023-05-04T01:49:59.741Z,99448.41
2023-05-04T01:52:27.534Z,99444.06
2023-05-04T01:54:54.621Z,99442.34
2023-05-04T01:57:22.450Z,99434.50
2023-05-04T01:59:49.895Z,99444.06
2023-05-04T02:02:17.391Z,99433.63
2023-05-04T02:04:44.527Z,99443.19
2023-05-04T02:07:11.734Z,99439.72
2023-05-04T02:09:39.077Z,99446.66
2023-05-04T02:12:06.300Z,99447.56
2023-05-04T02:14:33.963Z,99442.34
2023-05-04T02:17:01.036Z,99448.41
2023-05-04T02:19:27.931Z,99440.56
2023-05-04T02:21:55.166Z,99447.53
2023-05-04T02:24:22.103Z,99431.00
2023-05-04T02:26:49.150Z,99454.47
2023-05-04T02:29:19.448Z,99448.38
2023-05-04T02:31:46.587Z,99449.25
2023-05-04T02:34:13.935Z,99456.22
2023-05-04T02:36:41.656Z,99452.72
2023-05-04T02:39:08.474Z,99470.09
2023-05-04T02:41:35.745Z,99465.75
2023-05-04T02:44:02.839Z,99459.66
2023-05-04T02:46:31.846Z,99458.78
2023-05-04T02:48:58.926Z,99465.72
2023-05-04T02:51:26.437Z,99467.44
2023-05-04T02:53:54.214Z,99470.03
2023-05-04T02:56:21.617Z,99464.81
2023-05-04T02:58:48.891Z,99467.38
2023-05-04T03:01:16.605Z,99472.59
2023-05-04T03:03:44.256Z,99479.50
2023-05-04T03:06:11.570Z,99464.75
2023-05-04T03:08:38.852Z,99461.31
2023-05-04T03:11:06.549Z,99466.53
2023-05-04T03:13:34.006Z,99469.13
2023-05-04T03:16:01.333Z,99480.44
2023-05-04T03:21:09.102Z,99482.16
2023-05-04T03:23:36.663Z,99473.47
2023-05-04T03:26:03.970Z,99484.72
2023-05-04T03:28:32.272Z,99489.94
2023-05-04T03:30:59.623Z,99478.63
2023-05-04T03:33:26.600Z,99489.06
2023-05-04T03:35:54.172Z,99495.16
2023-05-04T03:38:21.214Z,99492.56
2023-05-04T03:40:48.454Z,99495.16
2023-05-04T03:43:15.750Z,99489.94
2023-05-04T03:45:43.232Z,99491.69
2023-05-04T03:48:10.100Z,99497.69
2023-05-04T03:50:37.672Z,99508.13
2023-05-04T03:53:06.129Z,99501.97
2023-05-04T03:55:33.633Z,99512.50
2023-05-04T03:58:01.367Z,99508.91
2023-05-04T04:00:28.183Z,99507.19
2023-05-04T04:02:55.367Z,99517.63
2023-05-04T04:05:22.539Z,99527.25
2023-05-04T04:07:49.486Z,99519.31
2023-05-04T04:10:16.731Z,99517.56
2023-05-04T04:12:43.724Z,99533.25
2023-05-04T04:15:11.166Z,99516.75
2023-05-04T04:17:38.168Z,99526.38
2023-05-04T04:20:05.819Z,99528.13
2023-05-04T04:22:33.094Z,99527.28
2023-05-04T04:25:00.109Z,99525.56
2023-05-04T04:27:27.931Z,99534.22
2023-05-04T04:29:54.957Z,99528.22
2023-05-04T04:32:23.536Z,99526.47
2023-05-04T04:34:50.922Z,99530.84
2023-05-04T04:37:18.028Z,99528.25
2023-05-04T04:39:44.827Z,99523.88
2023-05-04T04:42:12.436Z,99532.59
2023-05-04T04:44:39.976Z,99533.44
2023-05-04T04:47:07.175Z,99531.69
2023-05-04T04:49:34.170Z,99535.19
2023-05-04T04:52:02.202Z,99534.31
2023-05-04T04:54:29.417Z,99561.31
2023-05-04T04:56:56.555Z,99558.69
2023-05-04T04:59:25.100Z,99563.06
2023-05-04T05:01:52.317Z,99561.34
2023-05-04T05:04:20.419Z,99566.53
2023-05-04T05:06:48.431Z,99567.34
2023-05-04T05:09:15.611Z,99575.78
2023-05-04T05:11:42.624Z,99574.91
2023-05-04T05:14:09.523Z,99572.28
2023-05-04T05:16:36.747Z,99571.44
2023-05-04T05:19:04.299Z,99574.13
2023-05-04T05:21:33.366Z,99576.56
2023-05-04T05:24:00.255Z,99582.72
2023-05-04T05:26:27.488Z,99588.03
2023-05-04T05:28:54.379Z,99586.34
2023-05-04T05:31:21.814Z,99593.34
2023-05-04T05:33:48.764Z,99599.38
2023-05-04T05:36:15.568Z,99601.06
2023-05-04T05:38:42.418Z,99598.47
2023-05-04T05:41:10.045Z,99596.72
2023-05-04T05:43:38.759Z,99606.28
2023-05-04T05:46:07.112Z,99613.22
2023-05-04T05:48:34.322Z,99606.16
2023-05-04T05:51:01.193Z,99619.28
2023-05-04T05:53:28.059Z,99616.59
2023-05-04T05:55:54.884Z,99620.06
2023-05-04T05:58:21.866Z,99615.69
2023-05-04T06:00:48.770Z,99614.75
2023-05-04T06:03:15.970Z,99624.34
2023-05-04T06:05:42.899Z,99632.94
2023-05-04T06:08:09.687Z,99625.13
2023-05-04T06:10:36.578Z,99625.09
2023-05-04T06:13:03.421Z,99632.06
2023-05-04T06:15:30.366Z,99632.91
2023-05-04T06:17:57.244Z,99636.41
2023-05-04T06:20:24.232Z,99633.81
2023-05-04T06:22:51.005Z,99630.34
2023-05-04T06:25:17.980Z,99640.84
2023-05-04T06:27:44.813Z,99637.44
2023-05-04T06:30:12.173Z,99634.81
2023-05-04T06:32:39.188Z,99637.38
2023-05-04T06:35:12.967Z,99638.31
2023-05-04T06:37:39.978Z,99638.31
2023-05-04T06:40:08.329Z,99646.34
2023-05-04T06:42:35.608Z,99649.88
2023-05-04T06:45:03.310Z,99647.25
2023-05-04T06:47:30.186Z,99651.59
2023-05-04T06:49:58.025Z,99655.13
2023-05-04T06:52:24.881Z,99647.38
2023-05-04T06:54:51.918Z,99652.63
2023-05-04T06:57:18.789Z,99638.81
2023-05-04T06:59:46.080Z,99652.75
2023-05-04T07:02:12.937Z,99659.72
2023-05-04T07:04:39.764Z,99666.69
2023-05-04T07:07:06.794Z,99659.69
2023-05-04T07:09:34.044Z,99663.13
2023-05-04T07:12:00.945Z,99658.78
2023-05-04T07:14:27.780Z,99658.78
2023-05-04T07:16:55.259Z,99653.53
2023-05-04T07:19:22.182Z,99654.38
2023-05-04T07:21:56.764Z,99661.34
2023-05-04T07:24:23.621Z,99658.75
2023-05-04T07:27:02.475Z,99652.69
2023-05-04T07:29:36.446Z,99670.97
2023-05-04T07:32:03.349Z,99663.16
2023-05-04T07:34:52.149Z,99662.25
2023-05-04T07:37:19.262Z,99650.06
2023-05-04T07:39:46.195Z,99661.41
2023-05-04T07:42:13.222Z,99656.19
2023-05-04T07:44:41.494Z,99657.19
2023-05-04T07:47:08.686Z,99665.84
2023-05-04T07:49:35.727Z,99658.00
2023-05-04T07:52:04.317Z,99655.38
2023-05-04T07:54:31.484Z,99660.66
2023-05-04T07:56:58.364Z,99664.06
2023-05-04T07:59:25.212Z,99655.41
2023-05-04T08:01:52.764Z,99661.44
2023-05-04T08:04:19.710Z,99661.47
2023-05-04T08:06:47.011Z,99672.78
2023-05-04T08:09:13.835Z,99669.34
2023-05-04T08:11:40.814Z,99673.72
2023-05-04T08:14:08.352Z,99672.78
2023-05-04T08:16:35.373Z,99668.31
2023-05-04T08:19:02.461Z,99684.69
2023-05-04T08:21:29.365Z,99686.59
2023-05-04T08:23:56.339Z,99683.91
2023-05-04T08:26:23.859Z,99689.94
2023-05-04T08:28:51.126Z,99689.19
2023-05-04T08:31:18.853Z,99690.06
2023-05-04T08:33:46.474Z,99695.38
2023-05-04T08:36:13.366Z,99689.28
2023-05-04T08:38:40.373Z,99693.63
2023-05-04T08:41:07.888Z,99692.81
2023-05-04T08:43:36.855Z,99698.13
2023-05-04T08:46:05.104Z,99699.66
2023-05-04T08:48:33.908Z,99697.03
2023-05-04T08:51:02.646Z,99696.25
2023-05-04T08:53:31.484Z,99685.94
2023-05-04T08:56:04.564Z,99692.91
2023-05-04T08:58:37.974Z,99693.69
2023-05-04T09:01:07.323Z,99692.94
2023-05-04T09:03:34.591Z,99688.59
2023-05-04T09:06:07.054Z,99690.34
2023-05-04T09:08:34.067Z,99691.31
2023-05-04T09:11:01.210Z,99690.44
2023-05-04T09:13:28.114Z,99687.88
2023-05-04T09:15:56.171Z,99688.69
2023-05-04T09:18:23.602Z,99700.97
2023-05-04T09:20:50.657Z,99685.94
2023-05-04T09:23:18.336Z,99694.78
2023-05-04T09:25:50.660Z,99692.06
2023-05-04T09:28:18.652Z,99686.13
2023-05-04T09:30:47.052Z,99691.34
2023-05-04T09:33:14.154Z,99698.34
2023-05-04T09:35:43.078Z,99688.78
2023-05-04T09:38:10.358Z,99687.91
2023-05-04T09:40:41.092Z,99691.41
2023-05-04T09:43:09.592Z,99689.69
2023-05-04T09:45:44.147Z,99690.56
2023-05-04T09:48:29.452Z,99687.94
2023-05-04T09:51:02.748Z,99684.41
2023-05-04T09:53:32.464Z,99686.19
2023-05-04T09:56:02.190Z,99685.31
2023-05-04T09:58:31.029Z,99674.84
2023-05-04T10:01:01.297Z,99668.75
2023-05-04T10:03:29.321Z,99681.81
2023-05-04T10:05:58.608Z,99669.59
2023-05-04T10:08:27.170Z,99675.69
2023-05-04T10:10:54.375Z,99667.00
2023-05-04T10:13:21.305Z,99673.97
2023-05-04T10:16:34.494Z,99673.88
2023-05-04T10:19:20.864Z,99677.28
2023-05-04T10:21:56.938Z,99667.41
2023-05-04T10:25:02.629Z,99669.22
2023-05-04T10:28:01.642Z,99665.69
2023-05-04T10:30:28.883Z,99662.34
2023-05-04T10:32:57.742Z,99665.81
2023-05-04T10:35:25.751Z,99671.97
2023-05-04T10:37:57.239Z,99665.97
2023-05-04T10:40:40.254Z,99665.97
2023-05-04T10:43:08.721Z,99669.47
2023-05-04T10:45:40.014Z,99667.78
2023-05-04T10:48:08.570Z,99669.53
2023-05-04T10:51:01.845Z,99673.13
2023-05-04T10:53:33.247Z,99672.25
2023-05-04T10:56:00.367Z,99658.28
2023-05-04T10:58:30.292Z,99667.00
2023-05-04T11:00:57.548Z,99666.13
2023-05-04T11:03:25.217Z,99671.38
2023-05-04T11:05:55.525Z,99667.00
2023-05-04T11:08:27.129Z,99667.88
2023-05-04T11:11:05.128Z,99667.03
2023-05-04T11:13:34.815Z,99675.72
2023-05-04T11:16:02.342Z,99671.38
2023-05-04T11:18:34.602Z,99673.09
2023-05-04T11:21:01.850Z,99680.94
2023-05-04T11:23:29.197Z,99684.44
2023-05-04T11:25:56.494Z,99682.69
2023-05-04T11:28:34.837Z,99681.81
2023-05-04T11:31:12.831Z,99682.72
2023-05-04T11:33:55.019Z,99681.84
2023-05-04T11:36:23.111Z,99685.31
2023-05-04T11:38:53.947Z,99685.31
2023-05-04T11:41:26.511Z,99689.69
2023-05-04T11:43:53.823Z,99680.09
2023-05-04T11:46:20.847Z,99683.56
2023-05-04T11:48:48.407Z,99684.44
2023-05-04T11:51:15.222Z,99679.19
2023-05-04T11:53:45.265Z,99676.56
2023-05-04T11:56:12.240Z,99679.19
2023-05-04T11:58:39.239Z,99677.47
2023-05-04T12:01:06.278Z,99670.47
2023-05-04T12:03:53.196Z,99673.97
2023-05-04T12:06:34.145Z,99681.81
2023-05-04T12:09:06.388Z,99683.59
2023-05-04T12:11:34.907Z,99673.97
2023-05-04T12:14:13.557Z,99680.03
2023-05-04T12:16:43.201Z,99667.84
2023-05-04T12:19:13.134Z,99680.00
2023-05-04T12:21:53.866Z,99667.81
2023-05-04T12:24:25.142Z,99670.41
2023-05-04T12:26:52.479Z,99674.75
2023-05-04T12:29:19.563Z,99675.59
2023-05-04T12:31:46.794Z,99669.50
2023-05-04T12:34:13.769Z,99671.28
2023-05-04T12:36:41.034Z,99660.81
2023-05-04T12:39:07.934Z,99667.75
2023-05-04T12:41:34.922Z,99659.03
2023-05-04T12:44:02.926Z,99659.03
2023-05-04T12:46:29.963Z,99671.19
2023-05-04T12:48:57.306Z,99661.59
2023-05-04T12:51:26.874Z,99653.72
2023-05-04T12:53:53.780Z,99661.59
2023-05-04T12:56:20.617Z,99652.88
2023-05-04T12:58:47.602Z,99656.38
2023-05-04T13:01:14.500Z,99656.41
2023-05-04T13:03:41.470Z,99654.66
2023-05-04T13:06:09.237Z,99653.81
2023-05-04T13:08:36.266Z,99655.56
2023-05-04T13:11:03.246Z,99660.81
2023-05-04T13:13:30.904Z,99657.31
2023-05-04T13:15:58.000Z,99659.06
2023-05-04T13:18:27.948Z,99653.00
2023-05-04T13:20:56.111Z,99659.94
2023-05-04T13:23:23.665Z,99646.88
2023-05-04T13:25:51.569Z,99654.72
2023-05-04T13:28:19.045Z,99645.16
2023-05-04T13:30:46.042Z,99645.09
2023-05-04T13:33:28.117Z,99644.25
2023-05-04T13:35:58.354Z,99640.75
2023-05-04T13:38:25.725Z,99645.09
2023-05-04T13:40:52.762Z,99632.88
2023-05-04T13:43:19.873Z,99638.78
2023-05-04T13:45:46.875Z,99635.19
2023-05-04T13:48:13.754Z,99643.94
2023-05-04T13:50:40.948Z,99636.09
2023-05-04T13:53:11.121Z,99632.75
2023-05-04T13:55:38.606Z,99626.72
2023-05-04T13:58:05.678Z,99632.78
2023-05-04T14:00:32.710Z,99633.63
2023-05-04T14:03:00.017Z,99622.31
2023-05-04T14:05:27.295Z,99619.69
2023-05-04T14:07:54.123Z,99623.97
2023-05-04T14:10:21.172Z,99614.31
2023-05-04T14:12:48.275Z,99622.97
2023-05-04T14:15:16.716Z,99612.47
2023-05-04T14:17:43.733Z,99619.47
2023-05-04T14:20:10.996Z,99624.75
2023-05-04T14:22:41.377Z,99622.13
2023-05-04T14:25:09.101Z,99627.38
2023-05-04T14:27:36.355Z,99630.84
2023-05-04T14:30:05.128Z,99635.22
2023-05-04T14:32:31.993Z,99634.44
2023-05-04T14:35:10.497Z,99629.16
2023-05-04T14:37:38.978Z,99634.41
2023-05-04T14:40:13.509Z,99628.34
2023-05-04T14:42:40.512Z,99635.31
2023-05-04T14:45:08.755Z,99620.47
2023-05-04T14:47:36.168Z,99636.16
2023-05-04T14:50:03.563Z,99630.91
2023-05-04T14:52:31.703Z,99629.19
2023-05-04T14:54:58.674Z,99622.28
2023-05-04T14:57:25.480Z,99617.88
2023-05-04T14:59:52.372Z,99620.41
2023-05-04T15:02:19.399Z,99616.91
2023-05-04T15:04:47.143Z,99619.47
2023-05-04T15:07:18.861Z,99614.28
2023-05-04T15:09:45.857Z,99614.34
2023-05-04T15:12:12.713Z,99613.56
2023-05-04T15:14:39.508Z,99614.31
2023-05-04T15:17:07.490Z,99610.03
2023-05-04T15:19:48.037Z,99608.28
2023-05-04T15:22:15.038Z,99610.00
2023-05-04T15:24:41.834Z,99620.50
2023-05-04T15:27:08.654Z,99609.22
2023-05-04T15:29:37.746Z,99606.53
2023-05-04T15:32:13.626Z,99610.84
2023-05-04T15:34:42.491Z,99607.28
2023-05-04T15:37:12.581Z,99613.38
2023-05-04T15:39:39.456Z,99606.41
2023-05-04T15:42:06.501Z,99610.78
2023-05-04T15:44:33.426Z,99609.06
2023-05-04T15:47:00.387Z,99608.16
2023-05-04T15:49:27.370Z,99613.41
2023-05-04T15:51:54.994Z,99616.91
2023-05-04T15:54:21.846Z,99610.03
2023-05-04T15:56:49.136Z,99603.06
2023-05-04T15:59:17.979Z,99615.28
2023-05-04T16:01:44.998Z,99604.84
2023-05-04T16:04:12.228Z,99610.16
2023-05-04T16:06:39.748Z,99605.78
2023-05-04T16:09:07.182Z,99604.06
2023-05-04T16:11:34.246Z,99597.09
2023-05-04T16:14:01.080Z,99602.38
2023-05-04T16:16:27.930Z,99614.59
2023-05-04T16:18:55.557Z,99604.16
2023-05-04T16:21:22.352Z,99605.94
2023-05-04T16:23:49.217Z,99601.59
2023-05-04T16:26:16.247Z,99605.06
2023-05-04T16:28:45.293Z,99605.94
2023-05-04T16:31:12.296Z,99607.72
2023-05-04T16:33:40.315Z,99609.47
2023-05-04T16:36:07.676Z,99606.84
2023-05-04T16:38:34.486Z,99599.91
2023-05-04T16:41:01.344Z,99606.88
2023-05-04T16:43:28.240Z,99601.66
2023-05-04T16:45:55.203Z,99607.72
2023-05-04T16:48:22.135Z,99606.91
2023-05-04T16:50:49.058Z,99616.47
2023-05-04T16:53:16.491Z,99616.44
2023-05-04T16:55:43.972Z,99617.31
2023-05-04T16:58:11.048Z,99616.47
2023-05-04T17:00:41.957Z,99616.47
2023-05-04T17:03:08.999Z,99615.63
2023-05-04T17:05:36.149Z,99622.59
2023-05-04T17:08:03.032Z,99620.00
2023-05-04T17:10:29.982Z,99626.94
2023-05-04T17:12:57.056Z,99634.78
2023-05-04T17:15:24.015Z,99627.84
2023-05-04T17:17:51.084Z,99631.31
2023-05-04T17:20:17.932Z,99640.00
2023-05-04T17:22:45.508Z,99637.41
2023-05-04T17:25:13.111Z,99637.38
2023-05-04T17:27:39.997Z,99636.53
2023-05-04T17:30:07.486Z,99635.66
2023-05-04T17:32:36.702Z,99639.13
2023-05-04T17:35:15.836Z,99648.72
2023-05-04T17:37:50.966Z,99647.00
2023-05-04T17:40:18.088Z,99650.47
2023-05-04T17:42:44.998Z,99656.53
2023-05-04T17:45:12.624Z,99655.69
2023-05-04T17:47:39.719Z,99658.31
2023-05-04T17:50:07.227Z,99658.28
2023-05-04T17:52:34.294Z,99661.78
2023-05-04T17:55:01.502Z,99665.25
2023-05-04T17:57:28.313Z,99657.38
2023-05-04T17:59:55.509Z,99668.72
2023-05-04T18:02:22.724Z,99663.47
2023-05-04T18:04:49.630Z,99670.44
2023-05-04T18:07:16.879Z,99668.69
2023-05-04T18:09:44.133Z,99671.28
2023-05-04T18:12:11.029Z,99676.50
2023-05-04T18:14:40.820Z,99665.13
2023-05-04T18:17:08.141Z,99674.69
2023-05-04T18:19:37.463Z,99679.88
2023-05-04T18:22:04.522Z,99678.09
2023-05-04T18:24:33.997Z,99690.25
2023-05-04T18:27:02.027Z,99689.34
2023-05-04T18:29:29.119Z,99682.38
2023-05-04T18:31:56.005Z,99698.88
2023-05-04T18:34:22.838Z,99695.38
2023-05-04T18:36:49.767Z,99696.25
2023-05-04T18:39:16.642Z,99697.97
2023-05-04T18:41:43.440Z,99705.81
2023-05-04T18:44:10.689Z,99707.59
2023-05-04T18:46:37.875Z,99714.50
2023-05-04T18:49:04.742Z,99708.41
2023-05-04T18:51:31.690Z,99720.59
2023-05-04T18:53:58.563Z,99728.41
2023-05-04T18:56:26.009Z,99735.31
2023-05-04T18:58:53.013Z,99749.28
2023-05-04T19:01:22.134Z,99751.06
2023-05-04T19:03:49.188Z,99740.63
2023-05-04T19:06:16.232Z,99750.22
2023-05-04T19:08:43.212Z,99750.19
2023-05-04T19:11:10.095Z,99763.22
2023-05-04T19:13:37.116Z,99761.47
2023-05-04T19:16:04.117Z,99758.00
2023-05-04T19:18:30.913Z,99757.97
2023-05-04T19:20:57.772Z,99752.75
2023-05-04T19:23:25.217Z,99760.59
2023-05-04T19:25:53.071Z,99759.78
2023-05-04T19:28:20.180Z,99762.38
2023-05-04T19:30:47.018Z,99764.09
2023-05-04T19:33:13.896Z,99766.72
2023-05-04T19:35:41.067Z,99775.34
2023-05-04T19:38:07.965Z,99771.88
2023-05-04T19:40:35.022Z,99773.66
2023-05-04T19:43:02.036Z,99773.56
2023-05-04T19:45:29.098Z,99778.81
2023-05-04T19:47:56.063Z,99772.50
2023-05-04T19:50:23.029Z,99770.00
2023-05-04T19:52:50.515Z,99760.44
2023-05-04T19:55:17.773Z,99764.75
2023-05-04T19:57:44.819Z,99755.19
2023-05-04T20:00:12.869Z,99759.50
2023-05-04T20:02:39.964Z,99763.78
2023-05-04T20:05:07.233Z,99765.56
2023-05-04T20:07:34.140Z,99754.28
2023-05-04T20:10:01.045Z,99746.47
2023-05-04T20:12:27.921Z,99757.75
2023-05-04T20:14:55.012Z,99747.31
2023-05-04T20:17:22.080Z,99756.91
2023-05-04T20:19:49.405Z,99751.66
2023-05-04T20:22:16.515Z,99751.66
2023-05-04T20:24:43.595Z,99756.84
2023-05-04T20:27:13.247Z,99754.22
2023-05-04T20:29:40.225Z,99761.03
2023-05-04T20:32:09.042Z,99760.13
2023-05-04T20:34:43.267Z,99756.69
2023-05-04T20:37:11.128Z,99764.56
2023-05-04T20:39:38.162Z,99762.00
2023-05-04T20:42:05.894Z,99760.22
2023-05-04T20:44:33.629Z,99755.91
2023-05-04T20:47:00.516Z,99754.16
2023-05-04T20:49:37.648Z,99758.47
2023-05-04T20:52:10.388Z,99762.72
2023-05-04T20:54:44.091Z,99756.63
2023-05-04T20:57:11.103Z,99758.31
2023-05-04T20:59:37.941Z,99753.09
2023-05-04T21:02:04.822Z,99760.03
2023-05-04T21:04:31.740Z,99758.22
2023-05-04T21:06:58.621Z,99757.25
2023-05-04T21:09:26.729Z,99757.22
2023-05-04T21:11:53.596Z,99757.25
2023-05-04T21:14:21.077Z,99754.56
2023-05-04T21:16:48.136Z,99746.72
2023-05-04T21:19:15.100Z,99751.81
2023-05-04T21:21:41.936Z,99757.84
2023-05-04T21:24:14.872Z,99750.78
2023-05-04T21:26:42.102Z,99755.97
2023-05-04T21:29:15.634Z,99762.00
2023-05-04T21:31:44.483Z,99762.84
2023-05-04T21:34:11.354Z,99755.84
2023-05-04T21:36:39.092Z,99767.06
2023-05-04T21:39:08.521Z,99763.53
2023-05-04T21:41:35.493Z,99762.59
2023-05-04T21:44:02.499Z,99765.19
2023-05-04T21:46:29.475Z,99765.13
2023-05-04T21:48:56.317Z,99772.00
2023-05-04T21:51:23.334Z,99771.19
2023-05-04T21:53:50.229Z,99773.03
2023-05-04T21:56:17.044Z,99771.97
2023-05-04T21:58:44.082Z,99766.66
2023-05-04T22:01:20.045Z,99758.78
2023-05-04T22:03:47.596Z,99766.63
2023-05-04T22:06:14.496Z,99757.94
2023-05-04T22:08:41.535Z,99761.31
2023-05-04T22:11:09.376Z,99767.38
2023-05-04T22:13:36.187Z,99755.28
2023-05-04T22:16:03.052Z,99764.94
2023-05-04T22:18:29.843Z,99759.72
2023-05-04T22:20:56.755Z,99769.03
2023-05-04T22:23:23.640Z,99756.84
2023-05-04T22:25:50.566Z,99756.75
2023-05-04T22:28:17.512Z,99765.38
2023-05-04T22:30:44.554Z,99764.03
2023-05-04T22:33:11.343Z,99766.69
2023-05-04T22:35:38.298Z,99759.66
2023-05-04T22:38:05.304Z,99757.09
2023-05-04T22:40:32.380Z,99755.69
2023-05-04T22:42:59.298Z,99743.56
2023-05-04T22:45:26.284Z,99751.44
2023-05-04T22:47:53.519Z,99747.97
2023-05-04T22:50:20.534Z,99744.50
2023-05-04T22:52:47.671Z,99747.13
2023-05-04T22:55:14.616Z,99758.22
2023-05-04T22:57:41.592Z,99750.88
2023-05-04T23:00:09.613Z,99739.72
2023-05-04T23:02:36.841Z,99747.16
2023-05-04T23:05:04.258Z,99736.19
2023-05-04T23:07:31.277Z,99742.44
2023-05-04T23:09:58.344Z,99745.06
2023-05-04T23:12:27.293Z,99738.09
2023-05-04T23:14:54.871Z,99744.22
2023-05-04T23:17:22.202Z,99745.00
2023-05-04T23:19:49.113Z,99736.25
2023-05-04T23:22:16.472Z,99740.59
2023-05-04T23:24:43.572Z,99737.28
2023-05-04T23:27:11.649Z,99733.53
2023-05-04T23:29:38.750Z,99736.00
2023-05-04T23:32:06.066Z,99727.19
2023-05-04T23:34:32.956Z,99731.47
2023-05-04T23:36:59.907Z,99737.59
2023-05-04T23:39:27.500Z,99734.16
2023-05-04T23:41:54.561Z,99724.66
2023-05-04T23:44:21.927Z,99726.25
2023-05-04T23:46:48.922Z,99736.47
2023-05-04T23:49:15.875Z,99732.94
2023-05-04T23:51:42.748Z,99729.41
2023-05-04T23:54:09.717Z,99731.88
2023-05-04T23:56:36.596Z,99730.88
2023-05-04T23:59:04.086Z,99725.53
